createdAt,value
2022-11-29T00:00:41.005Z,17
2022-11-29T00:01:41.019Z,15
2022-11-29T00:02:41.019Z,13
2022-11-29T00:03:41.006Z,17
2022-11-29T00:04:41.006Z,15
2022-11-29T00:05:41.019Z,13
2022-11-29T00:06:41.020Z,13
2022-11-29T00:07:41.007Z,14
2022-11-29T00:08:41.007Z,13
2022-11-29T00:09:41.020Z,14
2022-11-29T00:10:41.020Z,15
2022-11-29T00:11:41.007Z,14
2022-11-29T00:12:41.021Z,13
2022-11-29T00:13:41.021Z,15
2022-11-29T00:14:41.021Z,18
2022-11-29T00:15:41.008Z,17
2022-11-29T00:16:41.021Z,15
2022-11-29T00:17:41.073Z,16
2022-11-29T00:18:41.022Z,16
2022-11-29T00:19:41.009Z,15
2022-11-29T00:20:41.022Z,15
2022-11-29T00:21:41.023Z,17
2022-11-29T00:22:41.022Z,18
2022-11-29T00:23:41.010Z,15
2022-11-29T00:24:41.023Z,15
2022-11-29T00:25:41.023Z,15
2022-11-29T00:26:41.010Z,15
2022-11-29T00:27:41.010Z,15
2022-11-29T00:28:41.024Z,18
2022-11-29T00:29:41.048Z,17
2022-11-29T00:30:41.011Z,17
2022-11-29T00:31:41.024Z,17
2022-11-29T00:32:41.024Z,16
2022-11-29T00:33:41.024Z,17
2022-11-29T00:34:41.011Z,15
2022-11-29T00:35:41.025Z,15
2022-11-29T00:36:41.025Z,17
2022-11-29T00:37:41.025Z,16
2022-11-29T00:38:41.012Z,16
2022-11-29T00:39:41.025Z,17
2022-11-29T00:40:41.026Z,16
2022-11-29T00:41:41.026Z,16
2022-11-29T00:42:41.013Z,14
2022-11-29T00:43:41.026Z,15
2022-11-29T00:44:41.027Z,12
2022-11-29T00:45:41.013Z,14
2022-11-29T00:46:41.014Z,15
2022-11-29T00:47:41.027Z,16
2022-11-29T00:48:41.027Z,14
2022-11-29T00:49:41.014Z,14
2022-11-29T00:50:41.027Z,15
2022-11-29T00:51:41.028Z,16
2022-11-29T00:52:41.028Z,15
2022-11-29T00:53:41.015Z,13
2022-11-29T00:54:41.028Z,11
2022-11-29T00:55:41.029Z,14
2022-11-29T00:56:41.028Z,11
2022-11-29T00:57:41.016Z,11
2022-11-29T00:58:41.029Z,11
2022-11-29T00:59:41.029Z,10
2022-11-29T01:00:41.029Z,11
2022-11-29T01:01:41.016Z,14
2022-11-29T01:02:41.029Z,12
2022-11-29T01:03:41.030Z,14
2022-11-29T01:04:41.017Z,14
2022-11-29T01:05:41.017Z,15
2022-11-29T01:06:41.030Z,15
2022-11-29T01:07:41.030Z,16
2022-11-29T01:08:41.018Z,14
2022-11-29T01:09:41.031Z,18
2022-11-29T01:10:41.031Z,17
2022-11-29T01:11:41.031Z,17
2022-11-29T01:12:41.018Z,16
2022-11-29T01:13:41.031Z,14
2022-11-29T01:14:41.032Z,15
2022-11-29T01:15:41.032Z,14
2022-11-29T01:16:41.019Z,15
2022-11-29T01:17:41.032Z,14
2022-11-29T01:18:41.033Z,14
2022-11-29T01:19:41.032Z,14
2022-11-29T01:20:41.020Z,13
2022-11-29T01:21:41.033Z,13
2022-11-29T01:22:41.034Z,12
2022-11-29T01:23:41.020Z,14
2022-11-29T01:24:41.020Z,11
2022-11-29T01:25:41.034Z,15
2022-11-29T01:26:41.034Z,16
2022-11-29T01:27:41.021Z,14
2022-11-29T01:28:41.034Z,17
2022-11-29T01:29:41.034Z,16
2022-11-29T01:30:41.034Z,22
2022-11-29T01:31:41.022Z,21
2022-11-29T01:32:41.035Z,17
2022-11-29T01:33:41.036Z,19
2022-11-29T01:34:41.035Z,21
2022-11-29T01:35:41.022Z,17
2022-11-29T01:36:41.036Z,20
2022-11-29T01:37:41.036Z,17
2022-11-29T01:38:41.045Z,16
2022-11-29T01:39:41.023Z,17
2022-11-29T01:40:41.036Z,19
2022-11-29T01:41:41.037Z,17
2022-11-29T01:42:41.024Z,18
2022-11-29T01:43:41.024Z,17
2022-11-29T01:44:41.037Z,17
2022-11-29T01:45:41.037Z,19
2022-11-29T01:46:41.024Z,20
2022-11-29T01:47:41.038Z,18
2022-11-29T01:48:41.038Z,19
2022-11-29T01:49:41.038Z,17
2022-11-29T01:50:41.025Z,18
2022-11-29T01:51:41.038Z,17
2022-11-29T01:52:41.039Z,19
2022-11-29T01:53:41.038Z,17
2022-11-29T01:54:41.026Z,15
2022-11-29T01:55:41.039Z,15
2022-11-29T01:56:41.040Z,16
2022-11-29T01:57:41.026Z,15
2022-11-29T01:58:41.027Z,15
2022-11-29T01:59:41.040Z,16
2022-11-29T02:00:41.040Z,14
2022-11-29T02:01:41.027Z,12
2022-11-29T02:02:41.027Z,13
2022-11-29T02:03:41.040Z,10
2022-11-29T02:04:41.041Z,11
2022-11-29T02:05:41.028Z,14
2022-11-29T02:06:41.041Z,15
2022-11-29T02:07:41.041Z,13
2022-11-29T02:08:41.041Z,11
2022-11-29T02:09:41.028Z,11
2022-11-29T02:10:41.042Z,13
2022-11-29T02:11:41.042Z,12
2022-11-29T02:12:41.042Z,13
2022-11-29T02:13:41.029Z,16
2022-11-29T02:14:41.043Z,15
2022-11-29T02:15:41.043Z,16
2022-11-29T02:16:41.043Z,16
2022-11-29T02:17:41.030Z,17
2022-11-29T02:18:41.043Z,16
2022-11-29T02:19:41.044Z,19
2022-11-29T02:20:41.030Z,17
2022-11-29T02:21:41.031Z,18
2022-11-29T02:22:41.044Z,18
2022-11-29T02:23:41.044Z,18
2022-11-29T02:24:41.031Z,18
2022-11-29T02:25:41.044Z,18
2022-11-29T02:26:41.045Z,19
2022-11-29T02:27:41.045Z,18
2022-11-29T02:28:41.044Z,16
2022-11-29T02:29:41.045Z,16
2022-11-29T02:30:41.046Z,16
2022-11-29T02:31:41.045Z,18
2022-11-29T02:32:41.033Z,16
2022-11-29T02:33:41.046Z,19
2022-11-29T02:34:41.046Z,18
2022-11-29T02:35:41.033Z,17
2022-11-29T02:36:41.033Z,17
2022-11-29T02:37:41.047Z,17
2022-11-29T02:38:41.047Z,16
2022-11-29T02:39:41.034Z,15
2022-11-29T02:40:41.034Z,18
2022-11-29T02:41:41.047Z,18
2022-11-29T02:42:41.047Z,18
2022-11-29T02:43:41.035Z,16
2022-11-29T02:44:41.048Z,17
2022-11-29T02:45:41.048Z,19
2022-11-29T02:46:41.048Z,16
2022-11-29T02:47:41.035Z,15
2022-11-29T02:48:41.049Z,15
2022-11-29T02:49:41.049Z,14
2022-11-29T02:50:41.049Z,15
2022-11-29T02:51:41.036Z,14
2022-11-29T02:52:41.049Z,14
2022-11-29T02:53:41.050Z,14
2022-11-29T02:54:41.036Z,15
2022-11-29T02:55:41.037Z,14
2022-11-29T02:56:41.050Z,16
2022-11-29T02:57:41.051Z,14
2022-11-29T02:58:41.037Z,15
2022-11-29T02:59:41.037Z,14
2022-11-29T03:00:41.051Z,14
2022-11-29T03:01:41.051Z,17
2022-11-29T03:02:41.038Z,14
2022-11-29T03:03:41.051Z,17
2022-11-29T03:04:41.051Z,13
2022-11-29T03:05:41.051Z,14
2022-11-29T03:06:41.039Z,14
2022-11-29T03:07:41.052Z,18
2022-11-29T03:08:41.053Z,15
2022-11-29T03:09:41.052Z,17
2022-11-29T03:10:41.039Z,15
2022-11-29T03:11:41.052Z,17
2022-11-29T03:12:41.053Z,16
2022-11-29T03:13:41.040Z,16
2022-11-29T03:14:41.040Z,16
2022-11-29T03:15:46.603Z,12
2022-11-29T03:16:41.054Z,16
2022-11-29T03:17:41.041Z,16
2022-11-29T03:18:41.041Z,15
2022-11-29T03:19:41.054Z,16
2022-11-29T03:20:41.055Z,16
2022-11-29T03:21:41.041Z,13
2022-11-29T03:22:41.055Z,12
2022-11-29T03:23:41.055Z,12
2022-11-29T03:24:41.055Z,14
2022-11-29T03:25:41.042Z,17
2022-11-29T03:26:41.055Z,14
2022-11-29T03:27:41.056Z,14
2022-11-29T03:28:41.056Z,15
2022-11-29T03:29:41.043Z,18
2022-11-29T03:30:41.056Z,19
2022-11-29T03:31:41.057Z,15
2022-11-29T03:32:41.043Z,15
2022-11-29T03:33:41.043Z,14
2022-11-29T03:34:41.057Z,14
2022-11-29T03:35:41.057Z,14
2022-11-29T03:36:41.044Z,14
2022-11-29T03:37:41.044Z,15
2022-11-29T03:38:41.057Z,14
2022-11-29T03:39:41.057Z,16
2022-11-29T03:40:41.045Z,16
2022-11-29T03:41:41.058Z,17
2022-11-29T03:42:41.058Z,14
2022-11-29T03:43:41.058Z,14
2022-11-29T03:44:41.045Z,12
2022-11-29T03:45:41.059Z,14
2022-11-29T03:46:41.059Z,15
2022-11-29T03:47:41.059Z,16
2022-11-29T03:48:41.046Z,15
2022-11-29T03:49:41.059Z,15
2022-11-29T03:50:41.060Z,17
2022-11-29T03:51:41.047Z,16
2022-11-29T03:52:41.047Z,18
2022-11-29T03:53:41.060Z,15
2022-11-29T03:54:41.061Z,14
2022-11-29T03:55:41.047Z,17
2022-11-29T03:56:41.048Z,20
2022-11-29T03:57:41.061Z,19
2022-11-29T03:58:41.061Z,16
2022-11-29T03:59:41.048Z,15
2022-11-29T04:00:41.061Z,21
2022-11-29T04:01:41.062Z,15
2022-11-29T04:02:41.062Z,16
2022-11-29T04:03:41.049Z,15
2022-11-29T04:04:41.062Z,15
2022-11-29T04:05:41.063Z,15
2022-11-29T04:06:41.062Z,18
2022-11-29T04:07:41.050Z,17
2022-11-29T04:08:41.127Z,18
2022-11-29T04:09:41.064Z,15
2022-11-29T04:10:41.050Z,16
2022-11-29T04:11:41.050Z,17
2022-11-29T04:12:41.063Z,15
2022-11-29T04:13:41.064Z,16
2022-11-29T04:14:41.051Z,16
2022-11-29T04:15:44.371Z,17
2022-11-29T04:16:41.064Z,15
2022-11-29T04:17:41.065Z,14
2022-11-29T04:18:41.052Z,15
2022-11-29T04:19:41.065Z,14
2022-11-29T04:20:41.065Z,17
2022-11-29T04:21:41.065Z,11
2022-11-29T04:22:41.052Z,13
2022-11-29T04:23:41.066Z,13
2022-11-29T04:24:41.067Z,12
2022-11-29T04:25:41.066Z,11
2022-11-29T04:26:41.053Z,12
2022-11-29T04:27:41.066Z,12
2022-11-29T04:28:41.067Z,11
2022-11-29T04:29:41.076Z,8
2022-11-29T04:30:41.054Z,14
2022-11-29T04:31:41.067Z,13
2022-11-29T04:32:41.068Z,16
2022-11-29T04:33:41.054Z,16
2022-11-29T04:34:41.054Z,16
2022-11-29T04:35:41.068Z,16
2022-11-29T04:36:41.068Z,18
2022-11-29T04:37:41.055Z,17
2022-11-29T04:38:41.068Z,18
2022-11-29T04:39:41.069Z,18
2022-11-29T04:40:41.068Z,20
2022-11-29T04:41:41.056Z,20
2022-11-29T04:42:41.069Z,19
2022-11-29T04:43:41.070Z,19
2022-11-29T04:44:41.069Z,18
2022-11-29T04:45:41.057Z,16
2022-11-29T04:46:41.070Z,18
2022-11-29T04:47:41.070Z,17
2022-11-29T04:48:41.057Z,17
2022-11-29T04:49:41.057Z,18
2022-11-29T04:50:41.071Z,16
2022-11-29T04:51:41.071Z,16
2022-11-29T04:52:41.058Z,18
2022-11-29T04:53:41.058Z,17
2022-11-29T04:54:41.071Z,18
2022-11-29T04:55:41.071Z,16
2022-11-29T04:56:41.059Z,15
2022-11-29T04:57:41.072Z,14
2022-11-29T04:58:41.072Z,18
2022-11-29T04:59:41.072Z,14
2022-11-29T05:00:41.059Z,12
2022-11-29T05:01:41.073Z,12
2022-11-29T05:02:41.073Z,9
2022-11-29T05:03:41.073Z,11
2022-11-29T05:04:41.060Z,10
2022-11-29T05:05:41.073Z,11
2022-11-29T05:06:41.074Z,12
2022-11-29T05:07:41.061Z,15
2022-11-29T05:08:41.061Z,17
2022-11-29T05:09:41.074Z,16
2022-11-29T05:10:41.075Z,17
2022-11-29T05:11:41.061Z,18
2022-11-29T05:12:41.075Z,18
2022-11-29T05:13:41.075Z,16
2022-11-29T05:14:41.075Z,18
2022-11-29T05:15:41.062Z,15
2022-11-29T05:16:41.075Z,10
2022-11-29T05:17:41.076Z,11
2022-11-29T05:18:41.075Z,11
2022-11-29T05:19:41.063Z,10
2022-11-29T05:20:41.076Z,13
2022-11-29T05:21:41.077Z,15
2022-11-29T05:22:41.076Z,13
2022-11-29T05:23:41.064Z,13
2022-11-29T05:24:41.085Z,14
2022-11-29T05:25:41.077Z,15
2022-11-29T05:26:41.064Z,13
2022-11-29T05:27:41.064Z,12
2022-11-29T05:28:41.077Z,12
2022-11-29T05:29:41.078Z,13
2022-11-29T05:30:41.065Z,15
2022-11-29T05:31:41.065Z,14
2022-11-29T05:32:41.078Z,12
2022-11-29T05:33:41.078Z,15
2022-11-29T05:34:41.066Z,15
2022-11-29T05:35:41.079Z,14
2022-11-29T05:36:41.079Z,16
2022-11-29T05:37:41.079Z,16
2022-11-29T05:38:41.066Z,13
2022-11-29T05:39:41.079Z,14
2022-11-29T05:40:41.145Z,17
2022-11-29T05:41:41.080Z,20
2022-11-29T05:42:41.067Z,17
2022-11-29T05:43:41.080Z,12
2022-11-29T05:44:41.081Z,13
2022-11-29T05:45:41.081Z,16
2022-11-29T05:46:41.068Z,14
2022-11-29T05:47:41.081Z,14
2022-11-29T05:48:41.082Z,15
2022-11-29T05:49:41.068Z,17
2022-11-29T05:50:41.068Z,15
2022-11-29T05:51:41.082Z,14
2022-11-29T05:52:41.082Z,13
2022-11-29T05:53:41.069Z,14
2022-11-29T05:54:41.091Z,18
2022-11-29T05:55:41.082Z,20
2022-11-29T05:56:41.083Z,26
2022-11-29T05:57:41.070Z,22
2022-11-29T05:58:41.083Z,22
2022-11-29T05:59:41.083Z,23
2022-11-29T06:00:41.083Z,23
2022-11-29T06:01:41.071Z,25
2022-11-29T06:02:41.084Z,26
2022-11-29T06:03:41.084Z,29
2022-11-29T06:04:41.084Z,23
2022-11-29T06:05:41.071Z,34
2022-11-29T06:06:41.093Z,18
2022-11-29T06:07:41.085Z,20
2022-11-29T06:08:41.072Z,19
2022-11-29T06:09:41.072Z,21
2022-11-29T06:10:41.085Z,25
2022-11-29T06:11:41.086Z,26
2022-11-29T06:12:41.073Z,23
2022-11-29T06:13:41.086Z,27
2022-11-29T06:14:41.086Z,21
2022-11-29T06:15:41.086Z,25
2022-11-29T06:16:41.073Z,24
2022-11-29T06:17:41.087Z,21
2022-11-29T06:18:41.113Z,21
2022-11-29T06:19:41.087Z,23
2022-11-29T06:20:41.074Z,25
2022-11-29T06:21:41.087Z,30
2022-11-29T06:22:41.088Z,37
2022-11-29T06:23:41.088Z,40
2022-11-29T06:24:41.075Z,33
2022-11-29T06:25:41.088Z,25
2022-11-29T06:26:41.089Z,31
2022-11-29T06:27:41.075Z,27
2022-11-29T06:28:41.076Z,33
2022-11-29T06:29:41.089Z,34
2022-11-29T06:30:41.113Z,39
2022-11-29T06:31:41.076Z,32
2022-11-29T06:32:41.089Z,32
2022-11-29T06:33:41.090Z,37
2022-11-29T06:34:41.090Z,38
2022-11-29T06:35:41.077Z,34
2022-11-29T06:36:41.090Z,32
2022-11-29T06:37:41.156Z,34
2022-11-29T06:38:41.090Z,29
2022-11-29T06:39:41.078Z,33
2022-11-29T06:40:41.091Z,38
2022-11-29T06:41:41.091Z,42
2022-11-29T06:42:41.091Z,38
2022-11-29T06:43:41.078Z,34
2022-11-29T06:44:41.092Z,31
2022-11-29T06:45:41.092Z,39
2022-11-29T06:46:41.079Z,34
2022-11-29T06:47:41.079Z,28
2022-11-29T06:48:41.092Z,23
2022-11-29T06:49:41.093Z,30
2022-11-29T06:50:41.080Z,31
2022-11-29T06:51:41.080Z,27
2022-11-29T06:52:41.093Z,27
2022-11-29T06:53:41.093Z,29
2022-11-29T06:54:41.080Z,33
2022-11-29T06:55:41.094Z,33
2022-11-29T06:56:41.094Z,31
2022-11-29T06:57:41.094Z,25
2022-11-29T06:58:41.081Z,31
2022-11-29T06:59:41.094Z,29
2022-11-29T07:00:41.095Z,36
2022-11-29T07:01:41.095Z,27
2022-11-29T07:02:41.082Z,33
2022-11-29T07:03:41.095Z,33
2022-11-29T07:04:41.096Z,34
2022-11-29T07:05:41.082Z,28
2022-11-29T07:06:41.083Z,28
2022-11-29T07:07:41.096Z,30
2022-11-29T07:08:41.096Z,25
2022-11-29T07:09:41.083Z,26
2022-11-29T07:10:41.083Z,34
2022-11-29T07:11:41.097Z,30
2022-11-29T07:12:41.097Z,30
2022-11-29T07:13:41.084Z,28
2022-11-29T07:14:41.097Z,32
2022-11-29T07:15:41.097Z,38
2022-11-29T07:16:41.097Z,40
2022-11-29T07:17:41.085Z,39
2022-11-29T07:18:41.098Z,39
2022-11-29T07:19:41.099Z,32
2022-11-29T07:20:41.098Z,36
2022-11-29T07:21:41.085Z,38
2022-11-29T07:22:41.099Z,41
2022-11-29T07:23:41.099Z,39
2022-11-29T07:24:41.086Z,28
2022-11-29T07:25:41.086Z,33
2022-11-29T07:26:41.099Z,35
2022-11-29T07:27:41.100Z,30
2022-11-29T07:28:41.087Z,30
2022-11-29T07:29:41.087Z,31
2022-11-29T07:30:41.100Z,35
2022-11-29T07:31:41.100Z,36
2022-11-29T07:32:41.087Z,33
2022-11-29T07:33:41.101Z,33
2022-11-29T07:34:41.101Z,39
2022-11-29T07:35:41.101Z,34
2022-11-29T07:36:41.101Z,32
2022-11-29T07:37:41.101Z,35
2022-11-29T07:39:41.102Z,32
2022-11-29T07:40:41.089Z,42
2022-11-29T07:41:41.102Z,41
2022-11-29T07:42:41.103Z,44
2022-11-29T07:43:41.089Z,39
2022-11-29T07:44:41.090Z,35
2022-11-29T07:45:41.103Z,40
2022-11-29T07:46:41.104Z,38
2022-11-29T07:47:41.090Z,45
2022-11-29T07:48:41.090Z,50
2022-11-29T07:49:41.104Z,43
2022-11-29T07:50:41.104Z,49
2022-11-29T07:51:41.091Z,42
2022-11-29T07:52:41.104Z,39
2022-11-29T07:53:41.104Z,47
2022-11-29T07:54:41.104Z,41
2022-11-29T07:55:41.092Z,47
2022-11-29T07:56:41.105Z,42
2022-11-29T07:57:41.106Z,47
2022-11-29T07:58:41.105Z,42
2022-11-29T07:59:41.092Z,51
2022-11-29T08:00:41.106Z,53
2022-11-29T08:01:41.106Z,38
2022-11-29T08:02:41.106Z,39
2022-11-29T08:03:41.093Z,41
2022-11-29T08:04:41.106Z,46
2022-11-29T08:05:41.107Z,44
2022-11-29T08:06:41.094Z,38
2022-11-29T08:07:41.094Z,46
2022-11-29T08:08:41.107Z,40
2022-11-29T08:09:41.107Z,40
2022-11-29T08:10:41.094Z,39
2022-11-29T08:11:41.108Z,54
2022-11-29T08:12:41.108Z,56
2022-11-29T08:13:41.108Z,53
2022-11-29T08:14:41.095Z,55
2022-11-29T08:15:41.108Z,63
2022-11-29T08:16:41.109Z,58
2022-11-29T08:17:41.109Z,61
2022-11-29T08:18:41.096Z,49
2022-11-29T08:19:41.109Z,51
2022-11-29T08:20:41.110Z,47
2022-11-29T08:21:41.096Z,51
2022-11-29T08:22:41.097Z,45
2022-11-29T08:23:41.110Z,44
2022-11-29T08:24:41.111Z,44
2022-11-29T08:25:41.097Z,50
2022-11-29T08:26:41.175Z,48
2022-11-29T08:27:41.111Z,52
2022-11-29T08:28:41.111Z,52
2022-11-29T08:29:41.098Z,46
2022-11-29T08:30:41.111Z,50
2022-11-29T08:31:41.112Z,47
2022-11-29T08:32:41.111Z,42
2022-11-29T08:33:41.099Z,49
2022-11-29T08:34:41.112Z,37
2022-11-29T08:35:41.113Z,42
2022-11-29T08:36:41.112Z,47
2022-11-29T08:37:41.099Z,49
2022-11-29T08:38:41.137Z,49
2022-11-29T08:39:41.113Z,56
2022-11-29T08:40:41.100Z,57
2022-11-29T08:41:41.100Z,46
2022-11-29T08:42:41.113Z,47
2022-11-29T08:43:41.114Z,44
2022-11-29T08:44:41.101Z,45
2022-11-29T08:45:41.114Z,59
2022-11-29T08:46:41.114Z,51
2022-11-29T08:47:41.114Z,45
2022-11-29T08:48:41.102Z,48
2022-11-29T08:49:41.115Z,47
2022-11-29T08:50:41.115Z,35
2022-11-29T08:51:41.115Z,36
2022-11-29T08:52:41.102Z,45
2022-11-29T08:53:41.116Z,49
2022-11-29T08:54:41.116Z,54
2022-11-29T08:55:41.116Z,50
2022-11-29T08:56:41.103Z,44
2022-11-29T08:57:41.116Z,52
2022-11-29T08:58:41.117Z,56
2022-11-29T08:59:41.104Z,50
2022-11-29T09:00:41.104Z,56
2022-11-29T09:01:41.117Z,59
2022-11-29T09:02:41.118Z,58
2022-11-29T09:03:41.104Z,56
2022-11-29T09:04:41.105Z,46
2022-11-29T09:05:41.118Z,47
2022-11-29T09:06:41.142Z,47
2022-11-29T09:07:41.105Z,53
2022-11-29T09:08:41.119Z,47
2022-11-29T09:09:41.119Z,52
2022-11-29T09:10:41.119Z,57
2022-11-29T09:11:41.106Z,47
2022-11-29T09:12:41.119Z,52
2022-11-29T09:13:41.120Z,54
2022-11-29T09:14:41.119Z,50
2022-11-29T09:15:41.107Z,63
2022-11-29T09:16:41.120Z,47
2022-11-29T09:17:41.121Z,48
2022-11-29T09:18:41.122Z,50
2022-11-29T09:19:41.107Z,47
2022-11-29T09:20:41.121Z,43
2022-11-29T09:21:41.121Z,45
2022-11-29T09:22:41.108Z,44
2022-11-29T09:23:41.108Z,43
2022-11-29T09:24:41.122Z,45
2022-11-29T09:25:41.122Z,43
2022-11-29T09:26:41.109Z,41
2022-11-29T09:27:41.122Z,44
2022-11-29T09:28:41.122Z,38
2022-11-29T09:29:41.122Z,41
2022-11-29T09:30:41.109Z,43
2022-11-29T09:31:41.123Z,37
2022-11-29T09:32:41.123Z,34
2022-11-29T09:33:41.123Z,41
2022-11-29T09:34:41.110Z,41
2022-11-29T09:35:41.123Z,29
2022-11-29T09:36:41.124Z,34
2022-11-29T09:37:41.111Z,41
2022-11-29T09:38:41.111Z,48
2022-11-29T09:39:41.124Z,41
2022-11-29T09:40:41.125Z,40
2022-11-29T09:41:41.112Z,37
2022-11-29T09:42:41.112Z,40
2022-11-29T09:43:41.125Z,39
2022-11-29T09:44:41.125Z,43
2022-11-29T09:45:41.112Z,51
2022-11-29T09:46:41.126Z,51
2022-11-29T09:47:41.126Z,46
2022-11-29T09:48:41.126Z,50
2022-11-29T09:49:41.113Z,41
2022-11-29T09:50:41.126Z,41
2022-11-29T09:51:41.127Z,40
2022-11-29T09:52:41.127Z,40
2022-11-29T09:53:41.114Z,45
2022-11-29T09:54:41.127Z,42
2022-11-29T09:55:41.128Z,50
2022-11-29T09:56:41.115Z,49
2022-11-29T09:57:41.115Z,53
2022-11-29T09:58:41.128Z,49
2022-11-29T09:59:41.129Z,49
2022-11-29T10:00:41.115Z,55
2022-11-29T10:01:41.115Z,60
2022-11-29T10:02:41.129Z,58
2022-11-29T10:03:41.129Z,49
2022-11-29T10:04:41.116Z,42
2022-11-29T10:05:41.129Z,54
2022-11-29T10:06:41.130Z,54
2022-11-29T10:07:41.130Z,61
2022-11-29T10:08:41.130Z,61
2022-11-29T10:09:41.130Z,60
2022-11-29T10:10:41.131Z,55
2022-11-29T10:11:41.130Z,50
2022-11-29T10:12:41.118Z,51
2022-11-29T10:13:41.131Z,51
2022-11-29T10:14:41.132Z,42
2022-11-29T10:15:41.118Z,57
2022-11-29T10:16:41.118Z,64
2022-11-29T10:17:41.132Z,59
2022-11-29T10:18:41.132Z,51
2022-11-29T10:19:41.119Z,52
2022-11-29T10:20:41.119Z,45
2022-11-29T10:21:41.132Z,47
2022-11-29T10:22:41.132Z,33
2022-11-29T10:23:41.120Z,34
2022-11-29T10:24:41.133Z,34
2022-11-29T10:25:41.133Z,29
2022-11-29T10:26:41.133Z,36
2022-11-29T10:27:41.120Z,38
2022-11-29T10:28:41.134Z,40
2022-11-29T10:29:41.134Z,53
2022-11-29T10:30:41.134Z,52
2022-11-29T10:31:41.121Z,44
2022-11-29T10:32:41.199Z,51
2022-11-29T10:33:41.135Z,47
2022-11-29T10:34:41.122Z,38
2022-11-29T10:35:41.122Z,45
2022-11-29T10:36:41.135Z,55
2022-11-29T10:37:41.136Z,53
2022-11-29T10:38:41.123Z,52
2022-11-29T10:39:41.136Z,51
2022-11-29T10:40:41.136Z,49
2022-11-29T10:41:41.136Z,55
2022-11-29T10:42:41.123Z,52
2022-11-29T10:43:41.137Z,47
2022-11-29T10:44:41.137Z,45
2022-11-29T10:45:41.137Z,49
2022-11-29T10:46:41.124Z,49
2022-11-29T10:47:41.138Z,42
2022-11-29T10:48:41.138Z,51
2022-11-29T10:49:41.138Z,42
2022-11-29T10:50:41.125Z,45
2022-11-29T10:51:41.138Z,47
2022-11-29T10:52:41.139Z,37
2022-11-29T10:53:41.126Z,36
2022-11-29T10:54:41.126Z,51
2022-11-29T10:55:41.139Z,44
2022-11-29T10:56:41.140Z,49
2022-11-29T10:57:41.126Z,54
2022-11-29T10:58:41.127Z,55
2022-11-29T10:59:41.140Z,60
2022-11-29T11:00:41.140Z,45
2022-11-29T11:01:41.127Z,48
2022-11-29T11:02:41.141Z,59
2022-11-29T11:03:41.141Z,50
2022-11-29T11:04:41.141Z,58
2022-11-29T11:05:41.128Z,66
2022-11-29T11:06:41.141Z,62
2022-11-29T11:07:41.142Z,53
2022-11-29T11:08:41.141Z,58
2022-11-29T11:09:41.129Z,67
2022-11-29T11:10:41.142Z,67
2022-11-29T11:11:41.143Z,51
2022-11-29T11:12:41.129Z,50
2022-11-29T11:13:41.130Z,51
2022-11-29T11:14:41.143Z,44
2022-11-29T11:15:41.144Z,63
2022-11-29T11:16:41.130Z,49
2022-11-29T11:17:41.130Z,53
2022-11-29T11:18:41.143Z,54
2022-11-29T11:19:41.144Z,65
2022-11-29T11:20:41.131Z,50
2022-11-29T11:21:41.144Z,48
2022-11-29T11:22:41.144Z,60
2022-11-29T11:23:41.144Z,58
2022-11-29T11:24:41.132Z,49
2022-11-29T11:25:41.145Z,48
2022-11-29T11:26:41.146Z,39
2022-11-29T11:27:41.145Z,38
2022-11-29T11:28:41.132Z,29
2022-11-29T11:29:41.146Z,33
2022-11-29T11:30:41.147Z,38
2022-11-29T11:31:41.133Z,45
2022-11-29T11:32:41.133Z,48
2022-11-29T11:33:41.147Z,54
2022-11-29T11:34:41.147Z,47
2022-11-29T11:35:41.134Z,56
2022-11-29T11:36:41.212Z,56
2022-11-29T11:37:41.147Z,53
2022-11-29T11:38:41.147Z,52
2022-11-29T11:39:41.135Z,66
2022-11-29T11:40:41.148Z,65
2022-11-29T11:41:41.148Z,61
2022-11-29T11:42:41.148Z,59
2022-11-29T11:43:41.135Z,61
2022-11-29T11:44:41.149Z,66
2022-11-29T11:45:41.149Z,71
2022-11-29T11:46:46.617Z,62
2022-11-29T11:47:41.136Z,71
2022-11-29T11:48:41.150Z,66
2022-11-29T11:49:41.150Z,74
2022-11-29T11:50:41.150Z,68
2022-11-29T11:51:41.137Z,59
2022-11-29T11:52:41.150Z,51
2022-11-29T11:53:41.151Z,56
2022-11-29T11:54:41.138Z,61
2022-11-29T11:55:41.138Z,64
2022-11-29T11:56:41.151Z,59
2022-11-29T11:57:41.151Z,61
2022-11-29T11:58:41.138Z,60
2022-11-29T11:59:41.152Z,61
2022-11-29T12:00:41.152Z,62
2022-11-29T12:01:41.152Z,70
2022-11-29T12:02:41.152Z,80
2022-11-29T12:03:41.152Z,67
2022-11-29T12:04:41.153Z,69
2022-11-29T12:05:41.153Z,64
2022-11-29T12:06:41.140Z,58
2022-11-29T12:07:41.153Z,74
2022-11-29T12:08:41.154Z,77
2022-11-29T12:09:41.141Z,80
2022-11-29T12:10:41.141Z,82
2022-11-29T12:11:41.154Z,73
2022-11-29T12:12:41.155Z,61
2022-11-29T12:13:41.141Z,77
2022-11-29T12:14:41.220Z,92
2022-11-29T12:15:41.155Z,99
2022-11-29T12:16:41.155Z,86
2022-11-29T12:17:41.142Z,77
2022-11-29T12:18:41.155Z,82
2022-11-29T12:19:41.156Z,74
2022-11-29T12:20:41.156Z,68
2022-11-29T12:21:41.143Z,59
2022-11-29T12:22:41.156Z,64
2022-11-29T12:23:41.157Z,68
2022-11-29T12:24:41.157Z,69
2022-11-29T12:25:41.144Z,69
2022-11-29T12:26:41.157Z,57
2022-11-29T12:27:41.158Z,63
2022-11-29T12:28:41.144Z,56
2022-11-29T12:29:41.145Z,60
2022-11-29T12:30:41.158Z,78
2022-11-29T12:31:41.159Z,68
2022-11-29T12:32:41.145Z,68
2022-11-29T12:33:41.145Z,66
2022-11-29T12:34:41.159Z,64
2022-11-29T12:35:41.159Z,62
2022-11-29T12:36:41.146Z,57
2022-11-29T12:37:41.159Z,60
2022-11-29T12:38:41.160Z,65
2022-11-29T12:39:41.160Z,62
2022-11-29T12:40:41.147Z,66
2022-11-29T12:41:41.160Z,69
2022-11-29T12:42:41.161Z,56
2022-11-29T12:43:41.160Z,61
2022-11-29T12:44:41.148Z,55
2022-11-29T12:45:41.161Z,57
2022-11-29T12:47:41.148Z,58
2022-11-29T12:48:41.148Z,58
2022-11-29T12:49:41.162Z,56
2022-11-29T12:50:41.162Z,41
2022-11-29T12:51:41.149Z,51
2022-11-29T12:52:41.162Z,38
2022-11-29T12:53:41.162Z,44
2022-11-29T12:54:41.163Z,53
2022-11-29T12:55:41.150Z,49
2022-11-29T12:56:41.163Z,50
2022-11-29T12:57:41.163Z,39
2022-11-29T12:58:41.163Z,39
2022-11-29T12:59:41.150Z,46
2022-11-29T13:00:41.164Z,61
2022-11-29T13:01:41.165Z,49
2022-11-29T13:02:41.164Z,53
2022-11-29T13:03:41.151Z,48
2022-11-29T13:04:41.164Z,51
2022-11-29T13:05:41.165Z,56
2022-11-29T13:06:41.152Z,56
2022-11-29T13:07:41.152Z,62
2022-11-29T13:08:41.165Z,53
2022-11-29T13:09:41.166Z,59
2022-11-29T13:10:41.153Z,56
2022-11-29T13:12:41.166Z,55
2022-11-29T13:13:41.166Z,53
2022-11-29T13:14:41.153Z,47
2022-11-29T13:15:41.167Z,56
2022-11-29T13:16:41.167Z,47
2022-11-29T13:17:41.167Z,49
2022-11-29T13:18:41.154Z,39
2022-11-29T13:19:41.168Z,49
2022-11-29T13:20:41.168Z,63
2022-11-29T13:21:41.169Z,54
2022-11-29T13:22:41.155Z,45
2022-11-29T13:23:41.168Z,42
2022-11-29T13:24:41.169Z,48
2022-11-29T13:25:41.155Z,39
2022-11-29T13:26:41.156Z,44
2022-11-29T13:27:41.169Z,42
2022-11-29T13:28:41.169Z,40
2022-11-29T13:29:41.156Z,46
2022-11-29T13:30:41.170Z,50
2022-11-29T13:31:41.170Z,40
2022-11-29T13:32:41.170Z,47
2022-11-29T13:33:41.157Z,53
2022-11-29T13:34:41.170Z,56
2022-11-29T13:35:41.171Z,57
2022-11-29T13:36:41.170Z,37
2022-11-29T13:37:41.158Z,39
2022-11-29T13:38:41.171Z,41
2022-11-29T13:39:41.172Z,44
2022-11-29T13:40:41.158Z,39
2022-11-29T13:41:41.159Z,38
2022-11-29T13:42:41.172Z,38
2022-11-29T13:43:41.173Z,51
2022-11-29T13:44:41.159Z,50
2022-11-29T13:45:41.159Z,67
2022-11-29T13:46:41.173Z,63
2022-11-29T13:47:41.173Z,48
2022-11-29T13:48:41.160Z,44
2022-11-29T13:49:41.173Z,49
2022-11-29T13:50:41.173Z,48
2022-11-29T13:51:41.174Z,45
2022-11-29T13:52:41.161Z,41
2022-11-29T13:53:41.174Z,38
2022-11-29T13:54:41.175Z,39
2022-11-29T13:55:41.174Z,40
2022-11-29T13:56:41.161Z,40
2022-11-29T13:57:41.175Z,42
2022-11-29T13:58:41.175Z,36
2022-11-29T13:59:41.175Z,43
2022-11-29T14:00:41.162Z,43
2022-11-29T14:01:41.175Z,42
2022-11-29T14:02:41.176Z,49
2022-11-29T14:03:41.163Z,53
2022-11-29T14:05:41.176Z,40
2022-11-29T14:06:41.177Z,39
2022-11-29T14:07:41.164Z,49
2022-11-29T14:08:41.177Z,38
2022-11-29T14:09:41.177Z,41
2022-11-29T14:10:41.177Z,45
2022-11-29T14:11:41.164Z,34
2022-11-29T14:12:41.177Z,48
2022-11-29T14:13:41.178Z,53
2022-11-29T14:14:41.178Z,53
2022-11-29T14:15:41.165Z,47
2022-11-29T14:16:41.178Z,50
2022-11-29T14:17:41.179Z,46
2022-11-29T14:18:41.179Z,48
2022-11-29T14:19:41.166Z,46